createdAt,value
2019-05-01T00:01:22.087Z,58.08
2019-05-01T00:04:08.606Z,57.75
2019-05-01T00:06:46.546Z,58.40
2019-05-01T00:09:18.357Z,57.01
2019-05-01T00:11:49.748Z,57.19
2019-05-01T00:14:21.233Z,58.06
2019-05-01T00:16:52.865Z,57.44
2019-05-01T00:19:24.224Z,56.71
2019-05-01T00:21:55.915Z,56.33
2019-05-01T00:24:27.513Z,56.33
2019-05-01T00:26:59.248Z,55.79
2019-05-01T00:29:31.093Z,55.59
2019-05-01T00:32:03.021Z,55.72
2019-05-01T00:34:34.688Z,54.92
2019-05-01T00:37:06.101Z,54.83
2019-05-01T00:39:37.716Z,54.47
2019-05-01T00:42:09.282Z,54.67
2019-05-01T00:44:41.214Z,55.21
2019-05-01T00:47:12.637Z,55.12
2019-05-01T00:49:44.286Z,55.17
2019-05-01T00:52:15.801Z,54.86
2019-05-01T00:54:48.698Z,54.81
2019-05-01T00:57:49.223Z,55.08
2019-05-01T01:00:42.583Z,55.06
2019-05-01T01:03:06.580Z,54.68
2019-05-01T01:05:38.196Z,54.61
2019-05-01T01:08:09.637Z,53.60
2019-05-01T01:10:41.029Z,53.78
2019-05-01T01:13:12.718Z,54.16
2019-05-01T01:15:44.290Z,53.17
2019-05-01T01:18:15.749Z,53.00
2019-05-01T01:20:47.650Z,53.50
2019-05-01T01:23:19.282Z,53.88
2019-05-01T01:25:51.014Z,53.57
2019-05-01T01:28:23.349Z,53.49
2019-05-01T01:30:56.420Z,53.29
2019-05-01T01:33:28.329Z,53.94
2019-05-01T01:35:59.884Z,54.08
2019-05-01T01:38:31.298Z,53.99
2019-05-01T01:41:03.735Z,52.30
2019-05-01T01:43:47.079Z,52.80
2019-05-01T01:46:20.655Z,52.59
2019-05-01T01:48:52.305Z,51.96
2019-05-01T01:51:24.235Z,51.96
2019-05-01T01:53:56.075Z,51.82
2019-05-01T01:56:27.903Z,52.34
2019-05-01T01:58:59.431Z,52.34
2019-05-01T02:01:50.028Z,51.90
2019-05-01T02:04:34.452Z,52.88
2019-05-01T02:07:05.963Z,52.43
2019-05-01T02:09:38.723Z,52.47
2019-05-01T02:12:10.289Z,52.47
2019-05-01T02:14:41.949Z,52.16
2019-05-01T02:17:13.729Z,52.57
2019-05-01T02:19:45.059Z,52.57
2019-05-01T02:22:16.531Z,52.66
2019-05-01T02:24:47.924Z,52.74
2019-05-01T02:27:25.310Z,53.17
2019-05-01T02:29:59.602Z,53.17
2019-05-01T02:32:30.924Z,52.46
2019-05-01T02:35:02.757Z,53.05
2019-05-01T02:37:35.374Z,53.22
2019-05-01T02:40:27.056Z,53.13
2019-05-01T02:43:00.128Z,53.21
2019-05-01T02:45:32.638Z,53.70
2019-05-01T02:48:05.621Z,53.49
2019-05-01T02:50:39.552Z,53.28
2019-05-01T02:53:11.495Z,53.47
2019-05-01T02:55:48.970Z,53.47
2019-05-01T02:58:20.585Z,53.43
2019-05-01T03:00:52.059Z,53.50
2019-05-01T03:03:23.768Z,53.45
2019-05-01T03:05:55.474Z,53.83
2019-05-01T03:08:27.494Z,53.99
2019-05-01T03:10:59.104Z,53.99
2019-05-01T03:13:32.047Z,52.94
2019-05-01T03:16:04.691Z,52.94
2019-05-01T03:18:40.012Z,53.36
2019-05-01T03:21:39.927Z,53.36
2019-05-01T03:24:18.505Z,53.86
2019-05-01T03:26:50.643Z,53.91
2019-05-01T03:29:22.511Z,54.43
2019-05-01T03:32:15.613Z,54.09
2019-05-01T03:34:28.590Z,54.17
2019-05-01T03:37:00.436Z,54.35
2019-05-01T03:39:32.078Z,55.20
2019-05-01T03:42:03.831Z,54.85
2019-05-01T03:44:35.570Z,54.98
2019-05-01T03:47:07.225Z,54.52
2019-05-01T03:49:39.095Z,53.59
2019-05-01T03:52:10.659Z,54.00
2019-05-01T03:54:42.266Z,53.57
2019-05-01T03:57:14.167Z,54.10
2019-05-01T03:59:46.174Z,54.21
2019-05-01T04:02:43.583Z,54.32
2019-05-01T04:05:15.386Z,53.64
2019-05-01T04:07:47.705Z,54.27
2019-05-01T04:10:19.539Z,54.42
2019-05-01T04:12:51.195Z,54.98
2019-05-01T04:15:23.087Z,55.14
2019-05-01T04:17:56.564Z,55.32
2019-05-01T04:20:29.722Z,55.24
2019-05-01T04:23:01.661Z,54.93
2019-05-01T04:25:33.262Z,54.65
2019-05-01T04:28:23.802Z,54.49
2019-05-01T04:31:02.872Z,55.09
2019-05-01T04:33:35.691Z,54.44
2019-05-01T04:36:14.461Z,54.39
2019-05-01T04:38:46.292Z,54.09
2019-05-01T04:41:17.877Z,53.97
2019-05-01T04:43:49.702Z,53.76
2019-05-01T04:46:21.205Z,53.36
2019-05-01T04:48:53.124Z,52.71
2019-05-01T04:51:24.724Z,51.61
2019-05-01T04:53:56.462Z,51.61
2019-05-01T04:56:28.045Z,51.77
2019-05-01T04:58:59.921Z,52.44
2019-05-01T05:01:50.126Z,52.24
2019-05-01T05:04:21.606Z,51.59
2019-05-01T05:06:53.989Z,52.20
2019-05-01T05:09:45.517Z,51.74
2019-05-01T05:12:52.365Z,52.10
2019-05-01T05:15:47.081Z,52.14
2019-05-01T05:18:18.225Z,52.21
2019-05-01T05:20:50.153Z,52.28
2019-05-01T05:23:21.364Z,52.92
2019-05-01T05:25:53.520Z,52.60
2019-05-01T05:28:26.461Z,53.28
2019-05-01T05:30:59.895Z,52.15
2019-05-01T05:33:34.655Z,50.82
2019-05-01T05:36:08.343Z,50.29
2019-05-01T05:39:03.558Z,48.54
2019-05-01T05:41:35.533Z,47.70
2019-05-01T05:44:07.677Z,45.55
2019-05-01T05:46:39.333Z,44.79
2019-05-01T05:49:10.901Z,43.07
2019-05-01T05:51:59.450Z,43.07
2019-05-01T05:55:00.085Z,41.60
2019-05-01T05:57:41.763Z,40.82
2019-05-01T06:00:25.033Z,39.94
2019-05-01T06:03:12.853Z,40.26
2019-05-01T06:06:06.139Z,41.38
2019-05-01T06:08:40.249Z,41.77
2019-05-01T06:11:34.024Z,41.33
2019-05-01T06:14:38.376Z,40.37
2019-05-01T06:17:28.436Z,40.24
2019-05-01T06:20:15.974Z,39.64
2019-05-01T06:23:20.472Z,38.14
2019-05-01T06:25:54.210Z,38.14
2019-05-01T06:28:29.609Z,38.53
2019-05-01T06:31:22.980Z,38.42
2019-05-01T06:33:52.990Z,38.00
2019-05-01T06:36:24.943Z,40.34
2019-05-01T06:38:56.291Z,38.04
2019-05-01T06:41:33.717Z,37.44
2019-05-01T06:44:09.630Z,38.63
2019-05-01T06:47:03.393Z,39.30
2019-05-01T06:49:39.568Z,39.30
2019-05-01T06:52:11.848Z,38.40
2019-05-01T06:54:43.446Z,37.44
2019-05-01T06:57:14.680Z,37.58
2019-05-01T06:59:47.073Z,37.85
2019-05-01T07:02:19.504Z,38.72
2019-05-01T07:04:51.708Z,37.48
2019-05-01T07:07:25.805Z,36.84
2019-05-01T07:09:58.328Z,37.73
2019-05-01T07:12:31.593Z,39.28
2019-05-01T07:15:05.293Z,39.79
2019-05-01T07:17:37.360Z,37.73
2019-05-01T07:20:28.222Z,36.18
2019-05-01T07:22:59.338Z,37.69
2019-05-01T07:25:34.646Z,37.16
2019-05-01T07:28:03.718Z,38.85
2019-05-01T07:30:54.733Z,37.75
2019-05-01T07:33:26.201Z,36.77
2019-05-01T07:35:57.448Z,38.07
2019-05-01T07:38:28.664Z,40.08
2019-05-01T07:41:03.389Z,39.99
2019-05-01T07:43:54.821Z,39.42
2019-05-01T07:46:36.449Z,39.25
2019-05-01T07:49:07.891Z,40.76
2019-05-01T07:51:42.380Z,39.33
2019-05-01T07:54:14.578Z,38.33
2019-05-01T07:56:45.894Z,38.61
2019-05-01T07:59:16.989Z,38.01
2019-05-01T08:02:08.592Z,37.15
2019-05-01T08:04:39.849Z,36.02
2019-05-01T08:07:10.838Z,37.91
2019-05-01T08:09:45.837Z,36.60
2019-05-01T08:12:18.996Z,36.58
2019-05-01T08:14:52.394Z,37.08
2019-05-01T08:17:23.159Z,36.97
2019-05-01T08:20:09.932Z,36.23
2019-05-01T08:22:40.351Z,34.99
2019-05-01T08:25:11.611Z,36.31
2019-05-01T08:28:00.650Z,36.92
2019-05-01T08:30:40.401Z,37.68
2019-05-01T08:33:49.946Z,38.58
2019-05-01T08:36:21.185Z,37.24
2019-05-01T08:38:52.256Z,38.68
2019-05-01T08:41:27.019Z,39.43
2019-05-01T08:43:56.563Z,39.34
2019-05-01T08:46:38.569Z,39.35
2019-05-01T08:49:20.243Z,39.00
2019-05-01T08:52:04.889Z,38.25
2019-05-01T08:54:34.862Z,37.49
2019-05-01T08:57:08.030Z,38.34
2019-05-01T08:59:39.505Z,38.89
2019-05-01T09:02:10.598Z,39.65
2019-05-01T09:04:41.741Z,38.81
2019-05-01T09:07:14.620Z,40.42
2019-05-01T09:09:47.460Z,39.73
2019-05-01T09:12:18.594Z,41.02
2019-05-01T09:14:51.309Z,39.81
2019-05-01T09:17:22.761Z,40.77
2019-05-01T09:19:53.951Z,40.91
2019-05-01T09:22:25.550Z,39.73
2019-05-01T09:24:59.969Z,40.35
2019-05-01T09:27:44.957Z,38.48
2019-05-01T09:30:26.896Z,38.48
2019-05-01T09:32:58.227Z,38.11
2019-05-01T09:35:30.859Z,39.06
2019-05-01T09:38:02.586Z,37.90
2019-05-01T09:40:34.205Z,39.69
2019-05-01T09:43:05.736Z,37.81
2019-05-01T09:45:37.053Z,36.84
2019-05-01T09:48:08.963Z,36.35
2019-05-01T09:50:44.657Z,35.98
2019-05-01T09:53:41.271Z,34.97
2019-05-01T09:56:15.621Z,34.83
2019-05-01T09:58:46.547Z,34.45
2019-05-01T10:01:17.805Z,36.09
2019-05-01T10:03:49.372Z,35.53
2019-05-01T10:06:21.683Z,36.21
2019-05-01T10:08:53.010Z,35.99
2019-05-01T10:11:24.087Z,34.25
2019-05-01T10:13:58.517Z,34.79
2019-05-01T10:16:27.979Z,33.93
2019-05-01T10:18:59.246Z,34.80
2019-05-01T10:21:30.215Z,33.14
2019-05-01T10:24:01.403Z,33.73
2019-05-01T10:26:34.054Z,31.99
2019-05-01T10:29:29.970Z,33.52
2019-05-01T10:32:21.698Z,32.97
2019-05-01T10:34:57.250Z,33.23
2019-05-01T10:37:33.209Z,32.45
2019-05-01T10:40:00.857Z,34.16
2019-05-01T10:42:33.467Z,34.44
2019-05-01T10:45:04.945Z,34.11
2019-05-01T10:47:36.229Z,35.55
2019-05-01T10:50:07.476Z,34.87
2019-05-01T10:52:38.754Z,35.65
2019-05-01T10:55:09.947Z,35.86
2019-05-01T10:57:42.207Z,33.95
2019-05-01T11:00:13.775Z,35.64
2019-05-01T11:02:44.745Z,35.88
2019-05-01T11:05:15.913Z,36.13
2019-05-01T11:07:47.285Z,34.19
2019-05-01T11:10:20.273Z,32.05
2019-05-01T11:12:51.296Z,34.18
2019-05-01T11:15:22.710Z,35.76
2019-05-01T11:17:54.007Z,34.17
2019-05-01T11:20:25.712Z,34.75
2019-05-01T11:22:57.009Z,32.30
2019-05-01T11:25:28.397Z,31.54
2019-05-01T11:27:59.709Z,34.27
2019-05-01T11:30:31.100Z,32.66
2019-05-01T11:33:24.032Z,32.21
2019-05-01T11:36:13.085Z,32.88
2019-05-01T11:38:55.281Z,34.51
2019-05-01T11:41:33.894Z,33.50
2019-05-01T11:44:05.676Z,33.38
2019-05-01T11:46:36.683Z,33.69
2019-05-01T11:49:08.521Z,35.52
2019-05-01T11:51:39.629Z,33.62
2019-05-01T11:54:12.075Z,34.63
2019-05-01T11:56:43.490Z,35.40
2019-05-01T11:59:15.484Z,36.62
2019-05-01T12:01:46.795Z,35.05
2019-05-01T12:04:17.735Z,35.36
2019-05-01T12:06:48.856Z,37.40
2019-05-01T12:09:20.023Z,34.17
2019-05-01T12:11:53.343Z,34.56
2019-05-01T12:14:24.533Z,36.40
2019-05-01T12:17:13.056Z,35.93
2019-05-01T12:19:44.095Z,34.43
2019-05-01T12:22:15.142Z,34.66
2019-05-01T12:24:46.369Z,38.30
2019-05-01T12:27:17.620Z,36.28
2019-05-01T12:29:48.968Z,35.43
2019-05-01T12:32:20.052Z,35.75
2019-05-01T12:34:51.166Z,38.75
2019-05-01T12:37:31.910Z,37.99
2019-05-01T12:40:03.156Z,37.14
2019-05-01T12:42:34.719Z,37.64
2019-05-01T12:45:07.082Z,38.59
2019-05-01T12:47:57.129Z,37.71
2019-05-01T12:50:28.502Z,38.42
2019-05-01T12:53:16.850Z,38.81
2019-05-01T12:56:09.779Z,38.35
2019-05-01T12:58:40.761Z,38.84
2019-05-01T13:01:12.048Z,38.21
2019-05-01T13:03:43.268Z,39.94
2019-05-01T13:06:14.654Z,40.42
2019-05-01T13:08:45.959Z,38.74
2019-05-01T13:11:17.094Z,39.92
2019-05-01T13:13:48.322Z,38.27
2019-05-01T13:16:19.483Z,37.77
2019-05-01T13:18:50.453Z,37.42
2019-05-01T13:21:21.535Z,36.96
2019-05-01T13:23:52.676Z,37.75
2019-05-01T13:26:55.116Z,36.65
2019-05-01T13:29:38.426Z,36.21
2019-05-01T13:32:19.281Z,36.74
2019-05-01T13:34:53.098Z,37.59
2019-05-01T13:37:24.140Z,38.26
2019-05-01T13:39:55.303Z,38.48
2019-05-01T13:42:26.344Z,38.05
2019-05-01T13:44:57.332Z,37.35
2019-05-01T13:47:28.410Z,37.34
2019-05-01T13:49:59.819Z,38.33
2019-05-01T13:52:30.921Z,38.61
2019-05-01T13:55:02.293Z,38.15
2019-05-01T13:57:33.226Z,38.61
2019-05-01T14:00:04.625Z,37.94
2019-05-01T14:02:37.357Z,38.87
2019-05-01T14:05:08.475Z,39.90
2019-05-01T14:07:39.765Z,38.22
2019-05-01T14:10:11.019Z,40.29
2019-05-01T14:12:42.076Z,39.47
2019-05-01T14:15:13.215Z,39.74
2019-05-01T14:17:44.713Z,40.60
2019-05-01T14:20:34.057Z,41.91
2019-05-01T14:23:22.190Z,40.94
2019-05-01T14:26:06.296Z,41.13
2019-05-01T14:28:37.565Z,41.08
2019-05-01T14:31:08.722Z,42.67
2019-05-01T14:33:39.801Z,42.79
2019-05-01T14:36:10.909Z,43.33
2019-05-01T14:38:42.253Z,44.44
2019-05-01T14:41:13.566Z,43.19
2019-05-01T14:43:44.692Z,43.34
2019-05-01T14:46:15.735Z,42.88
2019-05-01T14:48:47.074Z,43.42
2019-05-01T14:51:21.373Z,43.99
2019-05-01T14:53:50.835Z,43.04
2019-05-01T14:56:21.789Z,42.68
2019-05-01T14:58:52.775Z,42.90
2019-05-01T15:01:23.789Z,42.94
2019-05-01T15:03:55.073Z,44.14
2019-05-01T15:06:26.575Z,43.69
2019-05-01T15:08:57.874Z,44.22
2019-05-01T15:11:29.065Z,44.50
2019-05-01T15:14:22.723Z,45.28
2019-05-01T15:17:15.478Z,45.61
2019-05-01T15:19:51.622Z,45.09
2019-05-01T15:22:22.684Z,45.01
2019-05-01T15:24:53.878Z,45.69
2019-05-01T15:27:25.188Z,45.71
2019-05-01T15:29:56.315Z,45.04
2019-05-01T15:32:28.370Z,45.58
2019-05-01T15:34:59.550Z,45.22
2019-05-01T15:37:30.599Z,45.82
2019-05-01T15:40:11.768Z,45.55
2019-05-01T15:42:50.733Z,46.08
2019-05-01T15:45:21.980Z,46.24
2019-05-01T15:47:53.247Z,46.44
2019-05-01T15:50:24.635Z,46.53
2019-05-01T15:52:56.075Z,45.79
2019-05-01T15:55:27.742Z,45.08
2019-05-01T15:57:58.856Z,45.34
2019-05-01T16:00:30.140Z,45.27
2019-05-01T16:03:01.228Z,46.03
2019-05-01T16:05:32.469Z,45.88
2019-05-01T16:08:09.783Z,45.81
2019-05-01T16:10:42.706Z,45.81
2019-05-01T16:13:13.927Z,46.63
2019-05-01T16:15:45.284Z,46.16
2019-05-01T16:18:16.537Z,45.99
2019-05-01T16:20:47.777Z,46.34
2019-05-01T16:23:19.064Z,46.76
2019-05-01T16:25:50.310Z,46.78
2019-05-01T16:28:21.386Z,47.47
2019-05-01T16:30:52.636Z,47.92
2019-05-01T16:33:23.918Z,47.97
2019-05-01T16:35:55.311Z,47.97
2019-05-01T16:38:34.288Z,47.99
2019-05-01T16:41:07.539Z,48.45
2019-05-01T16:43:38.720Z,49.33
2019-05-01T16:46:09.941Z,49.09
2019-05-01T16:48:40.918Z,50.35
2019-05-01T16:51:12.079Z,50.34
2019-05-01T16:53:43.128Z,50.34
2019-05-01T16:56:14.328Z,50.17
2019-05-01T16:58:45.242Z,50.45
2019-05-01T17:01:44.375Z,51.35
2019-05-01T17:04:26.559Z,51.55
2019-05-01T17:07:09.071Z,51.55
2019-05-01T17:10:08.066Z,54.18
2019-05-01T17:12:49.829Z,54.18
2019-05-01T17:15:27.230Z,55.92
2019-05-01T17:17:58.471Z,55.92
2019-05-01T17:20:30.262Z,57.04
2019-05-01T17:23:02.152Z,57.60
2019-05-01T17:25:33.535Z,57.74
2019-05-01T17:28:08.143Z,57.82
2019-05-01T17:30:47.592Z,57.43
2019-05-01T17:33:20.836Z,57.96
2019-05-01T17:35:51.844Z,57.62
2019-05-01T17:38:23.129Z,57.75
2019-05-01T17:40:54.651Z,58.13
2019-05-01T17:43:25.951Z,58.79
2019-05-01T17:45:57.272Z,58.17
2019-05-01T17:48:33.222Z,59.50
2019-05-01T17:51:02.003Z,60.26
2019-05-01T17:53:33.038Z,60.74
2019-05-01T17:56:04.260Z,60.44
2019-05-01T17:58:35.472Z,61.17
2019-05-01T18:01:27.534Z,61.52
2019-05-01T18:04:16.072Z,61.69
2019-05-01T18:06:49.256Z,62.70
2019-05-01T18:09:20.244Z,63.24
2019-05-01T18:11:52.253Z,63.71
2019-05-01T18:14:24.014Z,63.63
2019-05-01T18:16:55.087Z,64.07
2019-05-01T18:19:26.105Z,64.06
2019-05-01T18:22:09.604Z,64.61
2019-05-01T18:25:15.131Z,65.14
2019-05-01T18:28:04.498Z,65.03
2019-05-01T18:30:40.613Z,65.45
2019-05-01T18:33:11.752Z,65.62
2019-05-01T18:35:44.950Z,65.73
2019-05-01T18:38:47.655Z,66.37
2019-05-01T18:41:39.328Z,66.99
2019-05-01T18:44:11.414Z,67.37
2019-05-01T18:46:42.753Z,67.87
2019-05-01T18:49:13.998Z,67.34
2019-05-01T18:51:45.251Z,67.52
2019-05-01T18:54:16.241Z,67.02
2019-05-01T18:56:47.322Z,67.07
2019-05-01T18:59:18.767Z,67.62
2019-05-01T19:01:49.919Z,67.52
2019-05-01T19:04:23.533Z,67.83
2019-05-01T19:06:54.117Z,67.87
2019-05-01T19:09:30.136Z,67.58
2019-05-01T19:11:58.802Z,67.89
2019-05-01T19:14:30.839Z,67.45
2019-05-01T19:17:02.105Z,68.06
2019-05-01T19:19:33.624Z,67.90
2019-05-01T19:22:06.314Z,67.84
2019-05-01T19:24:39.930Z,67.34
2019-05-01T19:27:14.222Z,67.10
2019-05-01T19:29:44.472Z,67.47
2019-05-01T19:32:16.618Z,67.10
2019-05-01T19:34:48.048Z,67.29
2019-05-01T19:37:22.072Z,67.04
2019-05-01T19:39:53.779Z,66.91
2019-05-01T19:42:24.808Z,67.19
2019-05-01T19:44:57.466Z,67.39
2019-05-01T19:47:28.875Z,67.88
2019-05-01T19:50:06.832Z,67.72
2019-05-01T19:52:38.001Z,67.29
2019-05-01T19:55:07.676Z,67.67
2019-05-01T19:57:40.003Z,67.81
2019-05-01T20:00:12.459Z,68.19
2019-05-01T20:02:43.682Z,68.07
2019-05-01T20:05:15.029Z,68.14
2019-05-01T20:07:46.260Z,68.72
2019-05-01T20:10:18.326Z,69.44
2019-05-01T20:12:49.793Z,69.03
2019-05-01T20:15:25.140Z,68.73
2019-05-01T20:17:54.093Z,68.20
2019-05-01T20:20:25.434Z,69.09
2019-05-01T20:22:56.483Z,68.53
2019-05-01T20:25:27.403Z,68.80
2019-05-01T20:27:58.659Z,68.23
2019-05-01T20:30:29.952Z,68.32
2019-05-01T20:33:02.256Z,68.45
2019-05-01T20:35:34.437Z,68.85
2019-05-01T20:38:05.945Z,69.14
2019-05-01T20:40:37.170Z,68.80
2019-05-01T20:43:08.441Z,68.59
2019-05-01T20:45:39.932Z,68.20
2019-05-01T20:48:11.413Z,68.59
2019-05-01T20:50:42.654Z,68.45
2019-05-01T20:53:13.935Z,69.27
2019-05-01T20:55:50.644Z,68.23
2019-05-01T20:58:22.843Z,69.02
2019-05-01T21:00:58.496Z,69.96
2019-05-01T21:03:29.870Z,69.68
2019-05-01T21:06:28.976Z,70.58
2019-05-01T21:09:13.110Z,70.97
2019-05-01T21:11:46.778Z,72.51
2019-05-01T21:14:20.062Z,72.80
2019-05-01T21:16:49.693Z,73.03
2019-05-01T21:19:20.671Z,72.70
2019-05-01T21:21:53.643Z,72.73
2019-05-01T21:24:25.835Z,72.87
2019-05-01T21:26:57.158Z,72.97
2019-05-01T21:29:28.508Z,72.27
2019-05-01T21:31:59.951Z,72.12
2019-05-01T21:34:33.323Z,72.29
2019-05-01T21:37:04.934Z,72.79
2019-05-01T21:39:35.953Z,72.46
2019-05-01T21:42:11.589Z,72.40
2019-05-01T21:44:40.306Z,73.52
2019-05-01T21:47:11.516Z,74.18
2019-05-01T21:49:43.000Z,74.16
2019-05-01T21:52:18.013Z,74.10
2019-05-01T21:54:50.124Z,76.04
2019-05-01T21:57:20.294Z,77.13
2019-05-01T21:59:51.732Z,78.47
2019-05-01T22:02:23.188Z,78.89
2019-05-01T22:04:54.552Z,79.07
2019-05-01T22:07:27.886Z,79.25
2019-05-01T22:09:59.634Z,80.17
2019-05-01T22:12:31.037Z,80.65
2019-05-01T22:15:10.464Z,80.98
2019-05-01T22:17:47.380Z,81.11
2019-05-01T22:20:23.139Z,82.64
2019-05-01T22:22:59.364Z,82.64
2019-05-01T22:25:35.128Z,82.82
2019-05-01T22:28:20.681Z,83.44
2019-05-01T22:31:03.016Z,82.37
2019-05-01T22:33:35.049Z,82.37
2019-05-01T22:36:06.994Z,83.73
2019-05-01T22:38:38.560Z,83.56
2019-05-01T22:41:11.748Z,83.56
2019-05-01T22:43:43.183Z,83.54
2019-05-01T22:46:27.976Z,83.31
2019-05-01T22:48:59.728Z,83.31
2019-05-01T22:51:30.979Z,83.38
2019-05-01T22:54:20.341Z,83.94
2019-05-01T22:56:52.114Z,83.54
2019-05-01T22:59:23.486Z,84.62
2019-05-01T23:01:58.244Z,84.00
2019-05-01T23:04:29.715Z,84.18
2019-05-01T23:07:01.367Z,83.92
2019-05-01T23:09:33.308Z,82.70
2019-05-01T23:12:05.059Z,82.45
2019-05-01T23:14:36.610Z,82.81
2019-05-01T23:17:29.703Z,83.00
2019-05-01T23:20:04.066Z,83.08
2019-05-01T23:22:34.623Z,82.74
2019-05-01T23:25:06.349Z,82.67
2019-05-01T23:27:37.961Z,82.18
2019-05-01T23:30:10.327Z,82.02
2019-05-01T23:32:41.823Z,82.09
2019-05-01T23:35:13.462Z,82.09
2019-05-01T23:37:44.841Z,81.84
2019-05-01T23:40:17.040Z,81.56
2019-05-01T23:42:52.844Z,80.77
2019-05-01T23:45:22.689Z,81.72
2019-05-01T23:47:54.239Z,80.35
2019-05-01T23:50:25.524Z,80.58
2019-05-01T23:52:57.228Z,80.18
2019-05-01T23:55:28.732Z,80.15
2019-05-01T23:58:00.289Z,79.82
